Time;durP1;ratioP1;P1;durP2;ratioP2;P2;SDS_P1;SDS_P2;PMS_P1;PMS_P2;Temp;Humidity;BMP_temperature;BMP_pressure;BME280_temperature;BME280_humidity;BME280_pressure;Samples;Min_cycle;Max_cycle;Signal;HPM_P1;HPM_P2
2023/06/12 00:00:30;;;;;;;7.33;6.50;;;15.30;57.30;;;;;;5026701;28;20207;-57
2023/06/12 00:02:57;;;;;;;8.23;6.67;;;15.20;57.50;;;;;;5021679;28;20447;-57
2023/06/12 00:05:23;;;;;;;9.77;6.07;;;15.20;57.80;;;;;;5025916;28;20422;-57
2023/06/12 00:07:55;;;;;;;7.80;6.20;;;15.10;58.00;;;;;;5024516;28;20985;-56
2023/06/12 00:10:21;;;;;;;7.80;5.90;;;15.10;58.30;;;;;;5021149;28;20918;-56
2023/06/12 00:12:47;;;;;;;10.07;6.87;;;15.00;58.30;;;;;;5025918;28;20513;-57
2023/06/12 00:15:12;;;;;;;11.67;6.63;;;15.00;58.50;;;;;;5024414;28;20176;-55
2023/06/12 00:17:38;;;;;;;16.83;7.20;;;15.00;58.30;;;;;;5027477;28;20213;-56
2023/06/12 00:20:05;;;;;;;9.83;7.37;;;15.00;58.20;;;;;;5022505;28;20204;-57
2023/06/12 00:22:30;;;;;;;13.60;6.30;;;15.00;58.20;;;;;;5024027;28;20172;-56
2023/06/12 00:24:56;;;;;;;9.67;7.10;;;15.00;58.30;;;;;;5026042;28;20418;-56
2023/06/12 00:27:22;;;;;;;7.87;6.57;;;15.00;58.30;;;;;;5022806;28;20301;-56
2023/06/12 00:29:47;;;;;;;7.93;6.47;;;14.90;58.30;;;;;;5020946;28;20176;-57
2023/06/12 00:32:13;;;;;;;9.33;6.70;;;14.90;58.40;;;;;;5024814;28;20226;-57
2023/06/12 00:34:38;;;;;;;7.23;6.50;;;14.90;58.60;;;;;;5022229;28;20215;-57
2023/06/12 00:37:05;;;;;;;10.90;7.33;;;14.80;58.70;;;;;;5025409;28;20387;-57
2023/06/12 00:39:30;;;;;;;7.83;6.73;;;14.80;58.80;;;;;;5026526;28;20172;-56
2023/06/12 00:41:56;;;;;;;15.90;8.60;;;14.70;58.80;;;;;;5023981;28;20426;-56
2023/06/12 00:44:22;;;;;;;7.77;6.57;;;14.70;59.00;;;;;;5023387;28;20707;-56
2023/06/12 00:46:47;;;;;;;9.80;7.00;;;14.60;59.10;;;;;;5021974;28;20221;-56
2023/06/12 00:49:13;;;;;;;7.73;6.77;;;14.60;59.20;;;;;;5024121;28;20180;-57
2023/06/12 00:51:41;;;;;;;9.00;6.80;;;14.50;59.20;;;;;;5024069;28;20190;-55
2023/06/12 00:54:06;;;;;;;10.60;6.70;;;14.50;59.40;;;;;;5017126;28;20431;-56
2023/06/12 00:56:32;;;;;;;8.53;7.50;;;14.50;59.60;;;;;;5024672;28;20415;-55
2023/06/12 00:58:58;;;;;;;9.83;6.80;;;14.40;59.60;;;;;;5025652;28;20164;-55
2023/06/12 01:01:25;;;;;;;7.73;6.70;;;14.40;59.80;;;;;;5025731;28;20168;-57
2023/06/12 01:03:56;;;;;;;8.73;6.87;;;14.40;59.80;;;;;;5021657;28;20436;-56
2023/06/12 01:06:33;;;;;;;19.23;6.80;;;14.30;59.80;;;;;;5027037;28;20476;-54
2023/06/12 01:09:08;;;;;;;7.43;6.33;;;14.30;60.00;;;;;;5024440;28;20522;-56
2023/06/12 01:11:35;;;;;;;8.47;7.07;;;14.20;60.20;;;;;;5027744;28;20417;-53
2023/06/12 01:14:02;;;;;;;10.50;6.83;;;14.20;60.30;;;;;;5031039;28;20438;-56
2023/06/12 01:16:28;;;;;;;9.37;6.97;;;14.20;60.40;;;;;;5025311;28;20422;-55
2023/06/12 01:18:55;;;;;;;8.93;7.40;;;14.10;60.50;;;;;;5024325;28;20934;-57
2023/06/12 01:21:23;;;;;;;12.50;7.30;;;14.10;60.70;;;;;;5026668;28;20457;-57
2023/06/12 01:23:49;;;;;;;13.63;7.47;;;14.00;60.90;;;;;;5029202;28;20442;-57
2023/06/12 01:26:43;;;;;;;8.83;6.83;;;14.00;61.10;;;;;;5030282;28;20775;-55
2023/06/12 01:29:46;;;;;;;7.93;6.83;;;14.00;61.40;;;;;;5025273;28;20271;-56
2023/06/12 01:32:16;;;;;;;10.07;7.47;;;13.90;61.50;;;;;;5028724;28;20441;-57
2023/06/12 01:35:02;;;;;;;10.93;7.53;;;13.90;61.80;;;;;;5030083;28;20492;-56
2023/06/12 01:37:49;;;;;;;10.97;7.07;;;13.90;62.20;;;;;;5024119;28;20945;-56
2023/06/12 01:40:16;;;;;;;9.03;7.30;;;13.90;62.50;;;;;;5023868;28;20544;-56
2023/06/12 01:42:42;;;;;;;10.30;7.60;;;13.80;62.50;;;;;;5026249;28;20725;-56
2023/06/12 01:45:08;;;;;;;11.07;7.23;;;13.80;62.80;;;;;;5029086;28;20480;-56
2023/06/12 01:47:34;;;;;;;12.03;7.40;;;13.80;62.80;;;;;;5024349;28;20490;-57
2023/06/12 01:50:02;;;;;;;8.27;7.07;;;13.80;63.00;;;;;;5021020;28;20195;-58
2023/06/12 01:52:28;;;;;;;8.30;6.70;;;13.80;62.90;;;;;;5026601;28;21090;-57
2023/06/12 01:54:58;;;;;;;10.17;6.83;;;13.80;62.80;;;;;;5028299;28;20425;-56
2023/06/12 01:57:23;;;;;;;7.30;6.50;;;13.70;62.60;;;;;;5029059;28;21072;-56
2023/06/12 01:59:51;;;;;;;7.33;6.37;;;13.70;62.90;;;;;;5024945;28;20427;-57
2023/06/12 02:02:17;;;;;;;9.63;8.00;;;13.70;63.20;;;;;;5025014;28;20164;-58
2023/06/12 02:04:43;;;;;;;8.20;6.90;;;13.60;63.50;;;;;;5027734;28;20446;-57
2023/06/12 02:07:09;;;;;;;10.30;7.50;;;13.60;63.80;;;;;;5029401;28;20203;-57
2023/06/12 02:09:35;;;;;;;9.17;7.23;;;13.50;64.10;;;;;;5025136;28;20761;-57
2023/06/12 02:12:01;;;;;;;8.53;6.73;;;13.50;64.50;;;;;;5022019;28;20431;-56
2023/06/12 02:14:27;;;;;;;7.43;6.73;;;13.50;64.70;;;;;;5024241;28;20234;-58
2023/06/12 02:16:53;;;;;;;8.17;7.37;;;13.50;64.70;;;;;;5027429;28;20179;-57
2023/06/12 02:19:25;;;;;;;11.30;7.20;;;13.50;65.10;;;;;;5024799;28;21028;-56
2023/06/12 02:21:52;;;;;;;15.53;7.90;;;13.50;65.50;;;;;;5024253;28;20411;-57
2023/06/12 02:24:18;;;;;;;8.90;7.07;;;13.50;66.00;;;;;;5029606;28;20533;-55
2023/06/12 02:26:43;;;;;;;8.77;6.97;;;13.50;66.00;;;;;;5023952;28;20514;-56
2023/06/12 02:29:13;;;;;;;7.57;6.67;;;13.50;65.90;;;;;;5026683;28;20195;-57
2023/06/12 02:31:38;;;;;;;8.33;7.10;;;13.50;65.80;;;;;;5023242;28;20725;-53
2023/06/12 02:34:04;;;;;;;10.30;6.70;;;13.50;66.00;;;;;;5023442;28;20447;-57
2023/06/12 02:36:30;;;;;;;8.83;7.40;;;13.50;66.80;;;;;;5026219;28;20176;-56
2023/06/12 02:38:56;;;;;;;8.17;6.60;;;13.40;66.40;;;;;;5027208;28;20195;-56
2023/06/12 02:41:22;;;;;;;7.73;6.60;;;13.40;67.40;;;;;;5029016;28;20769;-56
2023/06/12 02:43:48;;;;;;;11.00;6.90;;;13.30;67.10;;;;;;5020746;28;20454;-58
2023/06/12 02:46:14;;;;;;;8.37;6.93;;;13.30;67.60;;;;;;5028324;28;20861;-56
2023/06/12 02:48:39;;;;;;;8.90;7.50;;;13.20;68.10;;;;;;5025545;28;20261;-57
2023/06/12 02:51:05;;;;;;;11.60;8.20;;;13.20;68.20;;;;;;5027944;28;20183;-55
2023/06/12 02:53:31;;;;;;;9.90;7.90;;;13.20;68.70;;;;;;5020663;28;20196;-56
2023/06/12 02:55:57;;;;;;;11.93;8.00;;;13.10;69.00;;;;;;5021842;28;20180;-57
2023/06/12 02:58:23;;;;;;;9.30;6.80;;;13.10;69.80;;;;;;5028933;28;20422;-54
2023/06/12 03:00:48;;;;;;;9.37;7.20;;;13.00;70.50;;;;;;5025759;28;20450;-55
2023/06/12 03:03:14;;;;;;;9.03;7.73;;;13.00;71.10;;;;;;5027670;28;20345;-57
2023/06/12 03:05:41;;;;;;;8.87;7.70;;;13.00;71.50;;;;;;5028537;28;20660;-54
2023/06/12 03:08:08;;;;;;;9.87;7.00;;;13.00;71.60;;;;;;5021605;28;20196;-56
2023/06/12 03:10:34;;;;;;;10.57;8.50;;;12.90;71.90;;;;;;5024793;28;20473;-57
2023/06/12 03:13:00;;;;;;;10.73;8.27;;;12.90;72.30;;;;;;5027433;28;20453;-57
2023/06/12 03:15:26;;;;;;;10.00;7.23;;;12.80;72.80;;;;;;5026347;28;20457;-57
2023/06/12 03:17:52;;;;;;;14.10;8.60;;;12.80;73.10;;;;;;5017519;28;20419;-57
2023/06/12 03:20:18;;;;;;;9.37;7.90;;;12.70;73.80;;;;;;5023967;28;20454;-55
2023/06/12 03:22:44;;;;;;;10.00;7.93;;;12.70;74.60;;;;;;5027176;28;20179;-57
2023/06/12 03:25:15;;;;;;;11.40;8.37;;;12.70;75.00;;;;;;5028359;28;20575;-56
2023/06/12 03:27:41;;;;;;;19.40;9.13;;;12.70;75.50;;;;;;5027114;28;20216;-56
2023/06/12 03:30:07;;;;;;;16.23;9.10;;;12.60;75.90;;;;;;5020287;28;20419;-57
2023/06/12 03:32:32;;;;;;;10.50;8.10;;;12.60;76.60;;;;;;5022263;28;20442;-56
2023/06/12 03:34:58;;;;;;;10.77;8.10;;;12.60;76.70;;;;;;5026448;28;20430;-57
2023/06/12 03:37:27;;;;;;;11.77;9.00;;;12.60;77.40;;;;;;5025276;28;20192;-56
2023/06/12 03:39:53;;;;;;;9.40;8.10;;;12.60;77.70;;;;;;5018594;28;20245;-56
2023/06/12 03:42:19;;;;;;;12.90;9.17;;;12.60;77.80;;;;;;5023658;28;20422;-56
2023/06/12 03:44:44;;;;;;;10.67;8.37;;;12.60;78.30;;;;;;5026413;28;20204;-56
2023/06/12 03:47:11;;;;;;;11.50;8.40;;;12.60;78.30;;;;;;5026701;28;20203;-56
2023/06/12 03:49:38;;;;;;;14.03;8.60;;;12.60;78.20;;;;;;5022305;28;20546;-57
2023/06/12 03:52:04;;;;;;;10.17;7.90;;;12.60;79.00;;;;;;5018391;28;20434;-57
2023/06/12 03:54:30;;;;;;;10.13;7.80;;;12.60;78.60;;;;;;5024404;28;20434;-57
2023/06/12 03:56:56;;;;;;;8.10;7.27;;;12.60;79.20;;;;;;5026893;28;20779;-57
2023/06/12 03:59:21;;;;;;;12.87;6.93;;;12.60;80.40;;;;;;5026443;28;20176;-55
2023/06/12 04:01:48;;;;;;;12.23;8.50;;;12.60;81.10;;;;;;5025803;28;20202;-57
2023/06/12 04:04:14;;;;;;;7.27;6.50;;;12.60;81.80;;;;;;5026129;28;20195;-56
2023/06/12 04:06:41;;;;;;;8.80;7.70;;;12.70;82.50;;;;;;5025777;28;20492;-57
2023/06/12 04:09:12;;;;;;;9.53;8.13;;;12.70;82.80;;;;;;5026456;28;20458;-55
2023/06/12 04:11:41;;;;;;;11.20;7.70;;;12.70;82.00;;;;;;5014215;28;20534;-57
2023/06/12 04:14:07;;;;;;;11.27;8.07;;;12.70;81.90;;;;;;5024251;28;20434;-56
2023/06/12 04:16:33;;;;;;;12.27;9.03;;;12.80;80.30;;;;;;5027262;28;20437;-54
2023/06/12 04:19:03;;;;;;;10.60;8.20;;;12.80;80.10;;;;;;5025345;28;20998;-56
2023/06/12 04:21:32;;;;;;;11.10;8.20;;;12.80;80.20;;;;;;5026699;28;20434;-56
2023/06/12 04:24:03;;;;;;;21.40;7.90;;;12.80;81.10;;;;;;5022515;28;20933;-56
2023/06/12 04:26:29;;;;;;;8.50;7.60;;;12.90;81.60;;;;;;5027255;28;20513;-56
2023/06/12 04:28:56;;;;;;;10.40;7.60;;;12.90;82.30;;;;;;5021603;28;20474;-56
2023/06/12 04:31:23;;;;;;;14.90;8.00;;;12.90;83.00;;;;;;5024514;28;20434;-56
2023/06/12 04:33:51;;;;;;;10.60;8.90;;;13.00;83.70;;;;;;5019339;28;20549;-57
2023/06/12 04:36:17;;;;;;;9.80;8.80;;;13.00;83.10;;;;;;5019147;28;21033;-55
2023/06/12 04:38:44;;;;;;;11.77;8.53;;;13.10;84.10;;;;;;5021716;28;20512;-57
2023/06/12 04:41:10;;;;;;;10.63;8.20;;;13.20;84.10;;;;;;5026314;28;20434;-56
2023/06/12 04:43:36;;;;;;;11.37;8.57;;;13.20;82.70;;;;;;5016624;28;20491;-55
2023/06/12 04:46:02;;;;;;;9.73;8.73;;;13.30;82.10;;;;;;5023104;28;20218;-56
2023/06/12 04:48:28;;;;;;;9.97;8.50;;;13.40;82.20;;;;;;5025633;28;20458;-55
2023/06/12 04:50:54;;;;;;;10.33;8.03;;;13.60;82.40;;;;;;5030172;28;20874;-53
2023/06/12 04:53:29;;;;;;;10.80;8.50;;;13.70;82.00;;;;;;5024769;28;20207;-56
2023/06/12 04:55:56;;;;;;;11.50;9.30;;;13.80;81.60;;;;;;5023298;28;20476;-55
2023/06/12 04:58:21;;;;;;;11.10;8.83;;;13.90;80.20;;;;;;5029488;28;20528;-55
2023/06/12 05:00:50;;;;;;;10.87;8.43;;;14.00;80.00;;;;;;5030360;28;20430;-56
2023/06/12 05:03:17;;;;;;;13.50;8.67;;;14.10;79.30;;;;;;5028327;28;20209;-55
2023/06/12 05:05:46;;;;;;;11.97;8.53;;;14.20;77.70;;;;;;5030878;28;20426;-57
2023/06/12 05:08:13;;;;;;;13.60;8.90;;;14.30;77.70;;;;;;5029663;28;20467;-55
2023/06/12 05:10:39;;;;;;;12.87;9.07;;;14.40;77.20;;;;;;5029937;28;20434;-56
2023/06/12 05:13:05;;;;;;;12.73;9.00;;;14.50;77.10;;;;;;5030019;28;20442;-56
2023/06/12 05:15:31;;;;;;;10.20;8.33;;;14.70;76.60;;;;;;5029339;28;20425;-56
2023/06/12 05:17:56;;;;;;;11.00;8.80;;;14.80;77.10;;;;;;5025883;28;20763;-56
2023/06/12 05:20:22;;;;;;;13.33;9.70;;;14.90;76.20;;;;;;5024524;28;20172;-57
2023/06/12 05:22:48;;;;;;;13.23;9.10;;;15.10;74.90;;;;;;5026479;28;20183;-55
2023/06/12 05:25:15;;;;;;;12.33;8.57;;;15.20;74.80;;;;;;5027488;28;20275;-55
2023/06/12 05:27:40;;;;;;;15.90;8.40;;;15.40;74.20;;;;;;5028028;28;20737;-56
2023/06/12 05:30:07;;;;;;;10.90;8.27;;;15.50;73.30;;;;;;5028751;28;20468;-56
2023/06/12 05:32:34;;;;;;;12.23;8.80;;;15.70;72.60;;;;;;5028958;28;20232;-54
2023/06/12 05:35:00;;;;;;;11.37;7.70;;;15.80;71.90;;;;;;5026244;28;20427;-56
2023/06/12 05:37:25;;;;;;;16.30;8.23;;;16.00;71.20;;;;;;5026201;28;20445;-57
2023/06/12 05:39:52;;;;;;;14.03;8.10;;;16.10;70.40;;;;;;5026688;28;20452;-57
2023/06/12 05:42:18;;;;;;;9.30;7.77;;;16.30;69.50;;;;;;5028536;28;20180;-56
2023/06/12 05:44:46;;;;;;;11.77;8.03;;;16.40;68.60;;;;;;5023985;28;20527;-55
2023/06/12 05:47:12;;;;;;;11.90;8.80;;;16.50;67.80;;;;;;5029321;28;20708;-56
2023/06/12 05:49:37;;;;;;;14.73;8.40;;;16.70;67.20;;;;;;5028084;28;21008;-55
2023/06/12 05:52:04;;;;;;;13.93;7.90;;;16.80;66.70;;;;;;5025187;28;20516;-56
2023/06/12 05:54:29;;;;;;;8.63;7.73;;;16.90;66.20;;;;;;5029274;28;20261;-57
2023/06/12 05:56:55;;;;;;;9.60;7.57;;;17.00;65.80;;;;;;5029173;28;20819;-56
2023/06/12 05:59:21;;;;;;;13.00;8.00;;;17.10;65.60;;;;;;5025161;28;20202;-57
2023/06/12 06:01:46;;;;;;;8.47;7.53;;;17.20;65.50;;;;;;5023575;28;20180;-56
2023/06/12 06:04:12;;;;;;;13.30;7.67;;;17.30;65.30;;;;;;5020380;28;20202;-59
2023/06/12 06:06:38;;;;;;;10.33;7.33;;;17.40;65.00;;;;;;5025937;28;20187;-57
2023/06/12 06:09:06;;;;;;;9.10;7.60;;;17.50;64.30;;;;;;5020891;28;20207;-57
2023/06/12 06:11:31;;;;;;;9.23;6.57;;;17.60;63.80;;;;;;5021778;28;20849;-56
2023/06/12 06:13:58;;;;;;;9.57;7.13;;;17.70;63.00;;;;;;5022315;28;20542;-57
2023/06/12 06:16:24;;;;;;;19.17;7.73;;;17.80;62.60;;;;;;5024240;28;20188;-57
2023/06/12 06:18:50;;;;;;;8.10;6.47;;;17.80;62.30;;;;;;5021439;28;20435;-56
2023/06/12 06:21:16;;;;;;;11.80;7.53;;;17.90;61.90;;;;;;5027270;28;20978;-56
2023/06/12 06:23:41;;;;;;;11.63;7.20;;;18.00;61.70;;;;;;5025812;28;20211;-56
2023/06/12 06:26:11;;;;;;;9.30;5.97;;;18.00;61.30;;;;;;5027308;28;20180;-57
2023/06/12 06:28:37;;;;;;;8.23;7.33;;;18.10;60.90;;;;;;5024690;28;20258;-57
2023/06/12 06:31:06;;;;;;;7.23;6.40;;;18.30;61.50;;;;;;5027062;28;20526;-55
2023/06/12 06:33:32;;;;;;;8.37;6.80;;;18.30;60.50;;;;;;5021435;28;20335;-57
2023/06/12 06:35:58;;;;;;;12.97;7.10;;;18.40;60.10;;;;;;5020845;28;20482;-56
2023/06/12 06:38:24;;;;;;;7.77;6.37;;;18.50;59.70;;;;;;4990743;28;1079459;-56
2023/06/12 06:40:51;;;;;;;7.97;6.83;;;18.60;59.60;;;;;;5027696;28;20183;-57
2023/06/12 06:43:17;;;;;;;7.00;6.30;;;18.80;59.30;;;;;;5028212;28;20484;-56
2023/06/12 06:45:42;;;;;;;11.97;6.50;;;18.80;59.00;;;;;;5018574;28;20450;-57
2023/06/12 06:48:08;;;;;;;6.70;6.00;;;18.90;58.60;;;;;;5024209;28;20236;-56
2023/06/12 06:50:34;;;;;;;7.47;5.93;;;19.00;58.20;;;;;;5027421;28;20183;-56
2023/06/12 06:53:02;;;;;;;6.50;5.90;;;19.10;58.00;;;;;;5021735;28;20500;-57
2023/06/12 06:55:28;;;;;;;6.17;5.60;;;19.10;57.70;;;;;;5019375;28;20222;-58
2023/06/12 06:57:54;;;;;;;6.70;6.00;;;19.20;57.60;;;;;;5028851;28;22159;-58
2023/06/12 07:00:21;;;;;;;8.97;6.20;;;19.30;57.30;;;;;;5027506;28;20186;-57
2023/06/12 07:02:48;;;;;;;9.43;6.40;;;19.50;57.10;;;;;;5026895;28;20434;-56
2023/06/12 07:05:15;;;;;;;6.80;6.10;;;19.50;56.70;;;;;;5023050;28;21076;-56
2023/06/12 07:07:41;;;;;;;9.00;5.90;;;19.60;56.30;;;;;;5028205;28;20465;-58
2023/06/12 07:10:07;;;;;;;6.80;5.90;;;19.70;55.90;;;;;;5023649;28;20860;-58
2023/06/12 07:12:34;;;;;;;6.70;5.80;;;19.80;55.70;;;;;;5027851;28;20975;-56
2023/06/12 07:15:00;;;;;;;8.63;6.23;;;19.90;55.20;;;;;;5028211;28;20517;-58
2023/06/12 07:17:25;;;;;;;7.10;5.60;;;20.00;55.00;;;;;;5026270;28;20537;-59
2023/06/12 07:19:51;;;;;;;9.77;6.03;;;20.00;54.70;;;;;;5019493;28;20253;-57
2023/06/12 07:22:16;;;;;;;6.70;6.00;;;20.10;54.30;;;;;;5027334;28;20191;-56
2023/06/12 07:24:42;;;;;;;6.13;5.53;;;20.20;53.70;;;;;;5027557;28;20273;-56
2023/06/12 07:27:08;;;;;;;7.33;6.57;;;20.30;53.30;;;;;;5019853;28;20203;-55
2023/06/12 07:29:34;;;;;;;6.93;6.10;;;20.40;52.80;;;;;;5019791;28;20642;-56
2023/06/12 07:32:00;;;;;;;7.63;5.77;;;20.50;52.30;;;;;;5023556;28;20180;-55
2023/06/12 07:34:26;;;;;;;13.50;6.20;;;20.60;52.50;;;;;;5026040;28;20609;-54
2023/06/12 07:36:52;;;;;;;9.27;5.80;;;20.60;52.30;;;;;;5020648;28;20237;-59
2023/06/12 07:39:18;;;;;;;8.77;5.77;;;20.80;51.80;;;;;;5026617;28;20183;-56
2023/06/12 07:41:44;;;;;;;8.90;5.43;;;20.80;51.10;;;;;;5028714;28;20256;-56
2023/06/12 07:44:12;;;;;;;7.43;6.00;;;20.90;50.10;;;;;;5018631;28;21136;-56
2023/06/12 07:46:41;;;;;;;9.47;6.10;;;21.00;49.50;;;;;;5026092;28;20203;-58
2023/06/12 07:49:06;;;;;;;6.53;5.70;;;21.00;49.30;;;;;;5025206;28;20477;-56
2023/06/12 07:51:32;;;;;;;5.63;5.13;;;21.10;48.40;;;;;;5025841;28;20414;-58
2023/06/12 07:53:57;;;;;;;5.87;5.27;;;21.20;48.10;;;;;;5016321;28;20191;-56
2023/06/12 07:56:24;;;;;;;9.70;5.40;;;21.30;47.90;;;;;;5027557;28;20273;-56
2023/06/12 07:58:50;;;;;;;7.30;5.87;;;21.40;47.40;;;;;;5026068;28;20180;-57
2023/06/12 08:01:16;;;;;;;8.07;5.50;;;21.50;47.60;;;;;;5019846;28;20849;-56
2023/06/12 08:03:43;;;;;;;8.13;5.47;;;21.60;47.20;;;;;;5020469;28;20571;-57
2023/06/12 08:06:14;;;;;;;6.10;5.03;;;21.70;46.50;;;;;;5018218;28;20434;-56
2023/06/12 08:08:43;;;;;;;5.80;5.27;;;21.70;46.00;;;;;;5024892;28;20458;-56
2023/06/12 08:11:10;;;;;;;7.10;5.33;;;21.80;45.70;;;;;;5025059;28;20466;-56
2023/06/12 08:13:35;;;;;;;11.00;5.23;;;21.80;46.00;;;;;;5026695;28;20910;-56
2023/06/12 08:16:02;;;;;;;5.90;5.27;;;21.90;45.80;;;;;;5027286;28;20423;-57
2023/06/12 08:18:28;;;;;;;6.40;5.00;;;21.90;45.30;;;;;;5022248;28;20186;-56
2023/06/12 08:20:53;;;;;;;12.20;5.43;;;21.90;45.00;;;;;;5020475;28;20450;-57
2023/06/12 08:23:20;;;;;;;7.83;5.27;;;22.00;44.70;;;;;;5025304;28;20206;-56
2023/06/12 08:25:45;;;;;;;5.60;5.03;;;22.10;44.40;;;;;;5027206;28;20180;-56
2023/06/12 08:28:11;;;;;;;7.10;5.20;;;22.10;44.40;;;;;;5017383;28;20611;-55
2023/06/12 08:30:37;;;;;;;13.97;5.00;;;22.20;43.80;;;;;;5023421;28;20179;-54
2023/06/12 08:33:05;;;;;;;16.37;4.87;;;22.30;43.30;;;;;;5025233;28;20625;-57
2023/06/12 08:35:31;;;;;;;7.43;5.20;;;22.30;43.30;;;;;;5026711;28;20171;-55
2023/06/12 08:37:57;;;;;;;11.00;5.20;;;22.30;42.50;;;;;;5022961;28;20940;-54
2023/06/12 08:40:23;;;;;;;12.60;6.10;;;22.40;42.00;;;;;;5023539;28;20212;-55
2023/06/12 08:42:52;;;;;;;5.50;5.00;;;22.40;41.50;;;;;;5021785;28;20191;-55
2023/06/12 08:45:25;;;;;;;7.20;5.47;;;22.50;41.90;;;;;;5023431;28;20192;-56
2023/06/12 08:47:52;;;;;;;7.90;5.53;;;22.50;41.70;;;;;;5018522;28;20839;-55
2023/06/12 08:50:18;;;;;;;5.93;5.33;;;22.60;41.60;;;;;;5016982;28;20418;-57
2023/06/12 08:52:44;;;;;;;15.17;5.30;;;22.70;42.00;;;;;;5023570;28;20430;-56
2023/06/12 08:55:14;;;;;;;11.03;5.20;;;22.70;41.40;;;;;;5024144;28;20458;-57
2023/06/12 08:57:41;;;;;;;9.63;5.23;;;22.80;40.50;;;;;;5027555;28;20701;-55
2023/06/12 09:00:11;;;;;;;11.07;4.67;;;22.80;39.80;;;;;;5025733;28;20435;-55
2023/06/12 09:02:47;;;;;;;5.93;5.37;;;22.80;39.40;;;;;;5018605;28;20525;-56
2023/06/12 09:05:33;;;;;;;10.33;4.67;;;22.90;40.30;;;;;;5026117;28;20943;-56
2023/06/12 09:08:00;;;;;;;5.70;4.90;;;23.00;40.20;;;;;;5024555;28;20475;-56
2023/06/12 09:10:26;;;;;;;9.40;5.33;;;23.10;39.90;;;;;;5026196;28;20422;-55
2023/06/12 09:12:55;;;;;;;6.13;4.63;;;23.10;40.10;;;;;;5026622;28;20805;-57
2023/06/12 09:15:22;;;;;;;11.33;5.00;;;23.20;40.70;;;;;;5026653;28;20237;-55
2023/06/12 09:17:49;;;;;;;13.53;5.30;;;23.40;40.40;;;;;;5025101;28;20442;-57
2023/06/12 09:20:24;;;;;;;5.60;5.10;;;23.40;39.70;;;;;;5020243;28;20484;-55
2023/06/12 09:22:51;;;;;;;8.60;5.13;;;23.50;40.10;;;;;;5023798;28;20455;-57
2023/06/12 09:25:18;;;;;;;6.83;4.70;;;23.60;40.30;;;;;;5020945;28;20426;-55
2023/06/12 09:27:45;;;;;;;9.00;5.10;;;23.70;40.50;;;;;;5025372;28;20494;-57
2023/06/12 09:30:11;;;;;;;6.80;4.90;;;23.80;40.00;;;;;;5023683;28;20945;-57
2023/06/12 09:32:37;;;;;;;9.03;5.97;;;23.90;40.00;;;;;;5023024;28;20540;-57
2023/06/12 09:35:03;;;;;;;11.87;5.17;;;23.90;39.90;;;;;;5019693;28;20438;-56
2023/06/12 09:37:29;;;;;;;8.33;5.33;;;24.00;39.00;;;;;;5026716;28;20199;-56
2023/06/12 09:40:13;;;;;;;7.20;5.30;;;24.00;38.10;;;;;;5021430;28;20441;-55
2023/06/12 09:42:39;;;;;;;7.53;5.33;;;24.00;38.00;;;;;;5027218;28;20180;-56
2023/06/12 09:45:14;;;;;;;5.17;4.60;;;24.00;38.60;;;;;;5018383;28;20439;-56
2023/06/12 09:47:50;;;;;;;7.97;4.93;;;24.10;39.10;;;;;;5029994;28;20462;-55
2023/06/12 09:50:18;;;;;;;7.53;4.70;;;24.30;39.20;;;;;;5024574;28;20472;-57
2023/06/12 09:52:48;;;;;;;6.50;5.10;;;24.40;39.10;;;;;;5025557;28;20426;-56
2023/06/12 09:55:18;;;;;;;5.30;4.80;;;24.50;38.50;;;;;;5024444;28;20446;-57
2023/06/12 09:57:55;;;;;;;5.80;5.17;;;24.50;38.30;;;;;;5026312;28;20438;-59
2023/06/12 10:00:21;;;;;;;6.60;4.57;;;24.60;38.30;;;;;;5026496;28;20430;-56
2023/06/12 10:03:00;;;;;;;5.70;4.97;;;24.70;37.90;;;;;;5027626;28;20434;-57
2023/06/12 10:05:42;;;;;;;5.63;5.03;;;24.70;37.20;;;;;;5021705;28;20541;-58
2023/06/12 10:08:09;;;;;;;6.40;4.30;;;24.80;37.10;;;;;;5024767;28;20876;-56
2023/06/12 10:10:36;;;;;;;5.20;4.80;;;24.90;37.40;;;;;;5022690;28;20870;-56
2023/06/12 10:13:03;;;;;;;5.70;5.10;;;25.00;37.20;;;;;;5024073;28;20493;-55
2023/06/12 10:15:33;;;;;;;5.60;5.07;;;25.10;37.90;;;;;;5024077;28;20418;-54
2023/06/12 10:17:59;;;;;;;6.90;5.20;;;25.20;37.80;;;;;;5028268;28;20433;-57
2023/06/12 10:20:26;;;;;;;5.93;5.33;;;25.20;37.20;;;;;;5020210;28;20783;-56
2023/06/12 10:22:53;;;;;;;6.10;5.50;;;25.30;36.60;;;;;;5026621;28;20465;-54
2023/06/12 10:25:20;;;;;;;6.17;5.47;;;25.40;37.10;;;;;;5029888;28;20450;-55
2023/06/12 10:27:47;;;;;;;8.73;5.40;;;25.40;37.10;;;;;;5022540;28;20459;-57
2023/06/12 10:30:16;;;;;;;7.80;5.63;;;25.50;37.10;;;;;;5025036;28;20514;-57
2023/06/12 10:32:43;;;;;;;4.90;4.40;;;25.60;36.90;;;;;;5026401;28;20460;-54
2023/06/12 10:35:09;;;;;;;5.40;4.90;;;25.70;37.30;;;;;;5028381;28;20434;-57
2023/06/12 10:37:44;;;;;;;6.03;5.43;;;25.80;37.40;;;;;;5029248;28;20462;-58
2023/06/12 10:40:18;;;;;;;14.50;5.27;;;25.90;37.30;;;;;;5022941;28;20183;-56
2023/06/12 10:43:04;;;;;;;5.60;5.00;;;26.00;37.20;;;;;;5024385;28;20433;-56
2023/06/12 10:45:37;;;;;;;7.03;6.23;;;26.10;35.90;;;;;;5023337;28;20476;-56
2023/06/12 10:50:31;;;;;;;5.40;4.87;;;26.10;34.50;;;;;;5025031;28;20425;-55
2023/06/12 10:53:00;;;;;;;8.60;5.23;;;26.20;34.90;;;;;;5021930;28;20191;-57
2023/06/12 10:55:29;;;;;;;7.07;5.50;;;26.20;34.80;;;;;;5024882;28;20449;-57
2023/06/12 10:58:11;;;;;;;7.17;5.10;;;26.30;35.80;;;;;;5027417;28;20440;-54
2023/06/12 11:00:51;;;;;;;7.93;5.60;;;26.30;36.10;;;;;;5025911;28;20484;-55
2023/06/12 11:03:28;;;;;;;5.77;4.73;;;26.50;35.30;;;;;;5017257;28;20531;-57
2023/06/12 11:06:05;;;;;;;5.33;4.83;;;26.50;34.10;;;;;;5023664;28;20417;-57
2023/06/12 11:08:31;;;;;;;8.23;5.27;;;26.60;34.30;;;;;;5029061;28;20873;-56
2023/06/12 11:10:57;;;;;;;7.93;5.30;;;26.70;33.20;;;;;;5024848;28;20440;-57
2023/06/12 11:13:24;;;;;;;5.60;4.83;;;26.80;34.40;;;;;;5021873;28;20210;-58
2023/06/12 11:15:51;;;;;;;5.40;4.90;;;26.90;33.30;;;;;;5022364;28;20454;-57
2023/06/12 11:18:18;;;;;;;7.33;4.47;;;27.00;34.80;;;;;;5028587;28;20259;-57
2023/06/12 11:20:53;;;;;;;5.40;4.47;;;27.10;34.20;;;;;;5021373;28;20434;-57
2023/06/12 11:23:23;;;;;;;4.77;4.27;;;27.10;31.40;;;;;;5025018;28;20520;-57
2023/06/12 11:25:52;;;;;;;6.70;4.97;;;27.20;30.70;;;;;;5029221;28;20426;-56
2023/06/12 11:28:19;;;;;;;5.47;4.97;;;27.30;32.10;;;;;;5019448;28;20553;-57
2023/06/12 11:30:48;;;;;;;5.20;4.70;;;27.30;32.70;;;;;;5027191;28;20674;-56
2023/06/12 11:33:16;;;;;;;6.77;5.53;;;27.30;32.40;;;;;;5027246;28;20707;-57
2023/06/12 11:35:43;;;;;;;4.90;4.43;;;27.30;31.70;;;;;;5028453;28;20736;-58
2023/06/12 11:38:13;;;;;;;5.77;4.90;;;27.40;31.90;;;;;;5024394;28;20258;-56
2023/06/12 11:40:45;;;;;;;5.97;5.23;;;27.40;31.10;;;;;;5022299;28;20194;-59
2023/06/12 11:43:11;;;;;;;5.37;4.77;;;27.50;30.70;;;;;;5025501;28;20195;-57
2023/06/12 11:45:43;;;;;;;5.73;5.07;;;27.50;31.00;;;;;;5027267;28;20530;-57
2023/06/12 11:48:16;;;;;;;11.60;5.00;;;27.60;31.30;;;;;;5019824;28;20287;-57
2023/06/12 11:50:46;;;;;;;9.80;5.20;;;27.60;30.90;;;;;;5022753;28;20279;-58
2023/06/12 11:53:13;;;;;;;5.70;4.97;;;27.70;32.20;;;;;;5023623;28;20311;-58
2023/06/12 11:55:38;;;;;;;7.20;4.93;;;27.80;32.10;;;;;;5027972;28;20180;-57
2023/06/12 11:58:05;;;;;;;5.73;5.13;;;27.90;31.50;;;;;;5027761;28;20245;-58
2023/06/12 12:00:33;;;;;;;8.07;5.37;;;28.00;32.00;;;;;;5024796;28;20183;-57
2023/06/12 12:03:01;;;;;;;8.33;4.93;;;28.00;32.90;;;;;;5027137;28;20227;-57
2023/06/12 12:05:34;;;;;;;6.83;5.13;;;28.10;32.70;;;;;;5026941;28;20210;-57
2023/06/12 12:08:03;;;;;;;6.03;5.00;;;28.20;32.30;;;;;;5025108;28;20538;-57
2023/06/12 12:10:30;;;;;;;5.73;4.80;;;28.30;31.80;;;;;;5022043;28;20167;-56
2023/06/12 12:12:59;;;;;;;10.70;5.50;;;28.40;30.70;;;;;;5026882;28;20183;-57
2023/06/12 12:15:26;;;;;;;9.07;5.20;;;28.40;30.10;;;;;;5027682;28;20172;-57
2023/06/12 12:17:52;;;;;;;5.60;4.90;;;28.40;29.90;;;;;;5025728;28;20884;-56
2023/06/12 12:20:18;;;;;;;9.57;5.30;;;28.40;30.80;;;;;;5017433;28;20201;-57
2023/06/12 12:22:50;;;;;;;8.30;5.67;;;28.60;30.90;;;;;;5025548;28;20584;-57
2023/06/12 12:25:21;;;;;;;6.23;5.60;;;28.60;30.10;;;;;;5018279;28;20168;-56
2023/06/12 12:27:49;;;;;;;9.20;5.20;;;28.70;30.20;;;;;;5023344;28;20203;-55
2023/06/12 12:30:15;;;;;;;6.70;5.40;;;28.80;30.40;;;;;;5026581;28;21067;-55
2023/06/12 12:32:46;;;;;;;9.07;4.82;;;28.80;30.20;;;;;;5025685;28;20221;-56
2023/06/12 12:35:14;;;;;;;7.20;5.70;;;28.90;30.60;;;;;;5022545;28;20180;-57
2023/06/12 12:37:39;;;;;;;7.28;4.72;;;29.10;30.70;;;;;;5026707;28;20206;-57
2023/06/12 12:40:10;;;;;;;5.55;4.88;;;29.30;31.40;;;;;;5024154;28;20285;-57
2023/06/12 12:42:43;;;;;;;8.35;5.30;;;29.40;31.10;;;;;;5017600;28;20711;-58
2023/06/12 12:45:10;;;;;;;6.30;4.97;;;29.60;30.40;;;;;;5021790;28;20211;-57
2023/06/12 12:47:40;;;;;;;6.50;4.90;;;29.70;29.90;;;;;;5024472;28;20203;-56